Time;durP1;ratioP1;P1;durP2;ratioP2;P2;SDS_P1;SDS_P2;PMS_P1;PMS_P2;Temp;Humidity;BMP_temperature;BMP_pressure;BME280_temperature;BME280_humidity;BME280_pressure;Samples;Min_cycle;Max_cycle;Signal;HPM_P1;HPM_P2
2023/09/04 00:02:08;;;;;;;;;;;22.80;1.00;;;;;;4992548;28;19926;-62
2023/09/04 00:04:34;;;;;;;;;;;22.70;1.00;;;;;;4992335;28;19926;-61
2023/09/04 00:07:02;;;;;;;;;;;22.70;1.00;;;;;;4994654;28;19965;-62
2023/09/04 00:09:29;;;;;;;;;;;22.70;1.00;;;;;;4996359;28;19972;-61
2023/09/04 00:11:56;;;;;;;;;;;22.70;1.00;;;;;;4996229;28;20189;-62
2023/09/04 00:14:23;;;;;;;;;;;22.70;1.00;;;;;;4996073;28;19933;-61
2023/09/04 00:16:49;;;;;;;;;;;22.70;1.00;;;;;;4996135;28;20309;-61
2023/09/04 00:19:17;;;;;;;;;;;22.70;1.00;;;;;;4996705;28;19968;-61
2023/09/04 00:21:43;;;;;;;;;;;22.70;1.00;;;;;;4996057;28;19929;-61
2023/09/04 00:24:10;;;;;;;;;;;22.70;1.00;;;;;;5044275;22;19933;-61
2023/09/04 00:26:37;;;;;;;;;;;22.70;1.00;;;;;;4961672;28;20283;-61
2023/09/04 00:29:04;;;;;;;;;;;22.70;1.00;;;;;;4956013;29;20441;-62
2023/09/04 00:31:31;;;;;;;;;;;22.70;1.00;;;;;;4956021;29;20022;-60
2023/09/04 00:33:58;;;;;;;;;;;22.70;1.00;;;;;;4956873;29;20429;-60
2023/09/04 00:36:25;;;;;;;;;;;22.70;1.00;;;;;;4955898;29;19978;-60
2023/09/04 00:38:52;;;;;;;;;;;22.70;1.00;;;;;;4957124;29;19927;-58
2023/09/04 00:41:19;;;;;;;;;;;22.70;1.00;;;;;;4955747;29;19933;-61
2023/09/04 00:43:46;;;;;;;;;;;22.70;1.00;;;;;;4939766;29;20010;-61
2023/09/04 00:46:13;;;;;;;;;;;22.70;1.00;;;;;;4939659;29;20330;-61
2023/09/04 00:48:41;;;;;;;;;;;22.70;1.00;;;;;;4956893;29;19937;-61
2023/09/04 00:51:07;;;;;;;;;;;22.70;1.00;;;;;;4956977;29;19930;-61
2023/09/04 00:53:36;;;;;;;;;;;22.70;1.00;;;;;;4956730;29;19985;-61
2023/09/04 00:56:03;;;;;;;;;;;22.70;1.00;;;;;;5079172;23;19933;-62
2023/09/04 00:58:30;;;;;;;;;;;22.70;1.00;;;;;;4939895;29;19934;-60
2023/09/04 01:00:56;;;;;;;;;;;22.70;1.00;;;;;;4956736;29;20510;-61
2023/09/04 01:03:24;;;;;;;;;;;22.70;1.00;;;;;;4971223;28;19932;-61
2023/09/04 01:05:51;;;;;;;;;;;22.60;1.00;;;;;;4956516;28;19930;-61
2023/09/04 01:08:17;;;;;;;;;;;22.60;1.00;;;;;;4956434;29;20383;-61
2023/09/04 01:10:44;;;;;;;;;;;22.70;1.00;;;;;;4967123;28;19931;-61
2023/09/04 01:13:16;;;;;;;;;;;22.60;1.00;;;;;;4956201;29;20415;-61
2023/09/04 01:15:43;;;;;;;;;;;22.60;1.00;;;;;;4956463;28;20356;-61
2023/09/04 01:18:10;;;;;;;;;;;22.60;1.00;;;;;;4956102;28;20589;-61
2023/09/04 01:20:37;;;;;;;;;;;22.60;1.00;;;;;;4956372;29;19949;-61
2023/09/04 01:23:04;;;;;;;;;;;22.60;1.00;;;;;;4954747;29;19927;-61
2023/09/04 01:25:31;;;;;;;;;;;22.60;1.00;;;;;;4971116;28;19948;-61
2023/09/04 01:28:04;;;;;;;;;;;22.60;1.00;;;;;;4956175;29;20025;-61
2023/09/04 01:30:39;;;;;;;;;;;22.60;1.00;;;;;;4956334;28;20595;-59
2023/09/04 01:33:09;;;;;;;;;;;22.60;1.00;;;;;;4954788;29;19934;-59
2023/09/04 01:35:36;;;;;;;;;;;22.60;1.00;;;;;;4954770;28;19930;-60
2023/09/04 01:38:03;;;;;;;;;;;22.60;1.00;;;;;;4956134;28;20317;-60
2023/09/04 01:40:30;;;;;;;;;;;22.60;1.00;;;;;;4955882;28;19981;-60
2023/09/04 01:42:57;;;;;;;;;;;22.60;1.00;;;;;;4970626;28;19950;-61
2023/09/04 01:45:23;;;;;;;;;;;22.60;1.00;;;;;;4970594;28;20402;-61
2023/09/04 01:47:50;;;;;;;;;;;22.60;1.00;;;;;;4970500;28;19931;-61
2023/09/04 01:50:17;;;;;;;;;;;22.60;1.00;;;;;;4970501;28;19926;-61
2023/09/04 01:52:44;;;;;;;;;;;22.60;1.00;;;;;;4955656;29;19927;-60
2023/09/04 01:58:00;;;;;;;;;;;22.60;1.00;;;;;;5232062;23;20020;-61
2023/09/04 02:00:26;;;;;;;;;;;22.60;1.00;;;;;;4992988;28;19930;-61
2023/09/04 02:02:53;;;;;;;;;;;22.60;1.00;;;;;;4994333;28;19930;-61
2023/09/04 02:05:20;;;;;;;;;;;22.60;1.00;;;;;;4993917;28;19926;-62
2023/09/04 02:07:47;;;;;;;;;;;22.50;1.00;;;;;;4992958;28;19989;-60
2023/09/04 02:10:13;;;;;;;;;;;22.50;1.00;;;;;;4992875;28;19933;-61
2023/09/04 02:12:40;;;;;;;;;;;22.50;1.00;;;;;;4994037;28;19961;-62
2023/09/04 02:15:07;;;;;;;;;;;22.60;1.00;;;;;;4976378;28;20409;-61
2023/09/04 02:17:34;;;;;;;;;;;22.50;1.00;;;;;;4986347;28;19926;-62
2023/09/04 02:20:01;;;;;;;;;;;22.50;1.00;;;;;;4993989;28;19926;-62
2023/09/04 02:22:28;;;;;;;;;;;22.50;1.00;;;;;;4992721;28;20352;-61
2023/09/04 02:24:54;;;;;;;;;;;22.50;1.00;;;;;;4992187;28;19926;-62
2023/09/04 02:27:22;;;;;;;;;;;22.50;1.00;;;;;;4992493;28;19933;-61
2023/09/04 02:29:49;;;;;;;;;;;22.50;1.00;;;;;;5406830;23;20032;-60
2023/09/04 02:32:15;;;;;;;;;;;22.50;1.00;;;;;;4993668;28;19973;-61
2023/09/04 02:34:42;;;;;;;;;;;22.50;1.00;;;;;;4992211;28;19961;-61
2023/09/04 02:37:09;;;;;;;;;;;22.50;1.00;;;;;;4993594;28;20008;-61
2023/09/04 02:39:36;;;;;;;;;;;22.50;1.00;;;;;;4993752;28;20289;-59
2023/09/04 02:42:03;;;;;;;;;;;22.50;1.00;;;;;;4993529;28;19933;-61
2023/09/04 02:44:30;;;;;;;;;;;22.50;1.00;;;;;;4991047;28;19930;-61
2023/09/04 02:46:57;;;;;;;;;;;22.50;1.00;;;;;;4993357;28;19932;-61
2023/09/04 02:49:24;;;;;;;;;;;22.50;1.00;;;;;;4993514;28;20012;-61
2023/09/04 02:51:50;;;;;;;;;;;22.50;1.00;;;;;;4992028;28;19932;-61
2023/09/04 02:54:17;;;;;;;;;;;22.50;1.00;;;;;;4991827;28;19953;-61
2023/09/04 02:56:44;;;;;;;;;;;22.40;1.00;;;;;;4993794;28;20014;-60
2023/09/04 02:59:11;;;;;;;;;;;22.40;1.00;;;;;;4977664;28;19976;-61
2023/09/04 03:01:37;;;;;;;;;;;22.40;1.00;;;;;;5285520;23;19930;-60
2023/09/04 03:04:04;;;;;;;;;;;22.50;1.00;;;;;;4956208;28;19926;-59
2023/09/04 03:06:33;;;;;;;;;;;22.40;1.00;;;;;;4956466;28;19933;-62
2023/09/04 03:08:59;;;;;;;;;;;22.40;1.00;;;;;;4956227;28;20301;-61
2023/09/04 03:11:26;;;;;;;;;;;22.40;1.00;;;;;;4973671;28;20374;-62
2023/09/04 03:13:53;;;;;;;;;;;22.40;1.00;;;;;;4955984;28;19976;-60
2023/09/04 03:16:20;;;;;;;;;;;22.40;1.00;;;;;;4956509;28;20309;-62
2023/09/04 03:18:47;;;;;;;;;;;22.40;1.00;;;;;;4956369;28;19926;-62
2023/09/04 03:21:14;;;;;;;;;;;22.40;1.00;;;;;;4956080;28;19933;-61
2023/09/04 03:23:41;;;;;;;;;;;22.40;1.00;;;;;;4955911;28;19926;-61
2023/09/04 03:26:08;;;;;;;;;;;22.40;1.00;;;;;;4956060;28;19926;-62
2023/09/04 03:28:35;;;;;;;;;;;22.40;1.00;;;;;;4956186;28;19934;-62
2023/09/04 03:31:02;;;;;;;;;;;22.40;1.00;;;;;;4956046;28;20030;-62
2023/09/04 03:33:31;;;;;;;;;;;22.40;1.00;;;;;;4956028;28;19977;-61
2023/09/04 03:35:57;;;;;;;;;;;22.40;1.00;;;;;;4955981;28;19933;-61
2023/09/04 03:38:24;;;;;;;;;;;22.40;1.00;;;;;;4955943;28;20030;-61
2023/09/04 03:40:51;;;;;;;;;;;22.30;1.00;;;;;;4958198;28;19932;-61
2023/09/04 03:43:18;;;;;;;;;;;22.40;1.00;;;;;;4959886;28;20016;-61
2023/09/04 03:45:45;;;;;;;;;;;22.40;1.00;;;;;;4960193;28;19926;-62
2023/09/04 03:48:11;;;;;;;;;;;22.40;1.00;;;;;;4960100;28;19970;-60
2023/09/04 03:50:39;;;;;;;;;;;22.30;1.00;;;;;;4977462;28;20279;-60
2023/09/04 03:53:05;;;;;;;;;;;22.40;1.00;;;;;;4959688;28;20389;-60
2023/09/04 03:55:32;;;;;;;;;;;22.30;1.00;;;;;;4977087;28;19926;-61
2023/09/04 03:57:59;;;;;;;;;;;22.30;1.00;;;;;;4977657;28;19930;-61
2023/09/04 04:00:26;;;;;;;;;;;22.30;1.00;;;;;;4958632;28;20013;-61
2023/09/04 04:02:53;;;;;;;;;;;22.30;1.00;;;;;;4976855;28;20017;-61
2023/09/04 04:05:21;;;;;;;;;;;22.30;1.00;;;;;;4973248;23;19926;-61
2023/09/04 04:07:48;;;;;;;;;;;22.30;1.00;;;;;;4952057;28;19937;-61
2023/09/04 04:10:15;;;;;;;;;;;22.30;1.00;;;;;;4957460;28;19981;-60
2023/09/04 04:12:42;;;;;;;;;;;22.30;1.00;;;;;;4928863;28;20353;-62
2023/09/04 04:15:10;;;;;;;;;;;22.30;1.00;;;;;;4976901;28;19969;-60
2023/09/04 04:17:37;;;;;;;;;;;22.30;1.00;;;;;;4977357;28;19933;-59
2023/09/04 04:20:09;;;;;;;;;;;22.30;1.00;;;;;;4959771;28;19926;-62
2023/09/04 04:22:36;;;;;;;;;;;22.30;1.00;;;;;;4959640;28;19949;-61
2023/09/04 04:25:03;;;;;;;;;;;22.30;1.00;;;;;;4959365;28;19930;-60
2023/09/04 04:27:30;;;;;;;;;;;22.20;1.00;;;;;;4976844;28;19926;-61
2023/09/04 04:29:57;;;;;;;;;;;22.20;1.00;;;;;;4959634;28;19926;-60
2023/09/04 04:32:27;;;;;;;;;;;22.20;1.00;;;;;;4949052;28;19927;-58
2023/09/04 04:34:55;;;;;;;;;;;22.20;1.00;;;;;;5041724;23;20244;-61
2023/09/04 04:37:22;;;;;;;;;;;22.20;1.00;;;;;;4973537;28;19996;-60
2023/09/04 04:39:50;;;;;;;;;;;22.20;1.00;;;;;;4976489;28;19926;-59
2023/09/04 04:42:17;;;;;;;;;;;22.20;1.00;;;;;;4959039;28;19932;-60
2023/09/04 04:44:45;;;;;;;;;;;22.20;1.00;;;;;;4974378;28;19926;-60
2023/09/04 04:47:15;;;;;;;;;;;22.20;1.00;;;;;;4973534;28;19926;-60
2023/09/04 04:49:44;;;;;;;;;;;22.20;1.00;;;;;;4974151;28;20437;-60
2023/09/04 04:52:10;;;;;;;;;;;22.20;1.00;;;;;;4974873;28;19974;-60
2023/09/04 04:54:37;;;;;;;;;;;22.20;1.00;;;;;;4962791;28;19949;-59
2023/09/04 04:57:04;;;;;;;;;;;22.20;1.00;;;;;;4957265;28;19926;-59
2023/09/04 04:59:31;;;;;;;;;;;22.10;1.00;;;;;;4955274;28;19926;-57
2023/09/04 05:02:00;;;;;;;;;;;22.20;1.00;;;;;;4947354;29;19974;-59
2023/09/04 05:04:27;;;;;;;;;;;22.20;1.00;;;;;;4946776;28;19926;-59
2023/09/04 05:06:54;;;;;;;;;;;22.20;1.00;;;;;;4962637;28;19982;-59
2023/09/04 05:09:21;;;;;;;;;;;22.20;1.00;;;;;;4949006;28;19926;-58
2023/09/04 05:11:48;;;;;;;;;;;22.20;1.00;;;;;;4943826;28;19926;-60
2023/09/04 05:14:15;;;;;;;;;;;22.10;1.00;;;;;;4950238;28;19973;-60
2023/09/04 05:16:41;;;;;;;;;;;22.10;1.00;;;;;;4949906;28;19957;-60
2023/09/04 05:19:08;;;;;;;;;;;22.10;1.00;;;;;;4974223;28;20326;-59
2023/09/04 05:21:35;;;;;;;;;;;22.10;1.00;;;;;;4971200;28;19926;-60
2023/09/04 05:24:21;;;;;;;;;;;22.10;1.00;;;;;;4946674;28;19926;-60
2023/09/04 05:26:48;;;;;;;;;;;22.10;1.00;;;;;;4946788;28;19927;-61
2023/09/04 05:29:15;;;;;;;;;;;22.10;1.00;;;;;;4964014;28;19927;-58
2023/09/04 05:31:42;;;;;;;;;;;22.10;1.00;;;;;;4967505;28;20352;-60
2023/09/04 05:34:09;;;;;;;;;;;22.10;1.00;;;;;;4967494;28;20298;-59
2023/09/04 05:36:35;;;;;;;;;;;22.10;1.00;;;;;;5258938;23;21237;-60
2023/09/04 05:39:02;;;;;;;;;;;22.10;1.00;;;;;;4955520;29;20005;-59
2023/09/04 05:41:29;;;;;;;;;;;22.10;1.00;;;;;;4955624;29;19926;-55
2023/09/04 05:43:56;;;;;;;;;;;22.10;1.00;;;;;;4955532;29;19968;-59
2023/09/04 05:46:23;;;;;;;;;;;22.10;1.00;;;;;;4955600;29;19968;-59
2023/09/04 05:48:50;;;;;;;;;;;22.10;1.00;;;;;;4955735;29;20371;-60
2023/09/04 05:51:16;;;;;;;;;;;22.10;1.00;;;;;;4955575;29;20023;-59
2023/09/04 05:53:43;;;;;;;;;;;22.10;1.00;;;;;;4955382;29;19989;-57
2023/09/04 05:56:10;;;;;;;;;;;22.10;1.00;;;;;;4955676;29;19932;-59
2023/09/04 05:58:44;;;;;;;;;;;22.10;1.00;;;;;;4955347;29;20399;-59
2023/09/04 06:01:12;;;;;;;;;;;22.10;1.00;;;;;;4955444;29;20395;-60
2023/09/04 06:03:39;;;;;;;;;;;22.10;1.00;;;;;;4954212;28;19927;-60
2023/09/04 06:06:06;;;;;;;;;;;22.10;1.00;;;;;;4955716;29;19933;-60
2023/09/04 06:08:33;;;;;;;;;;;22.10;1.00;;;;;;5010536;23;19990;-59
2023/09/04 06:11:01;;;;;;;;;;;22.10;1.00;;;;;;4992931;28;19925;-60
2023/09/04 06:13:28;;;;;;;;;;;22.10;1.00;;;;;;4993677;28;19926;-60
2023/09/04 06:15:54;;;;;;;;;;;22.10;1.00;;;;;;4989435;28;19926;-60
2023/09/04 06:18:22;;;;;;;;;;;22.10;1.00;;;;;;4974284;28;19943;-61
2023/09/04 06:20:50;;;;;;;;;;;22.10;1.00;;;;;;4974282;28;19927;-59
2023/09/04 06:23:16;;;;;;;;;;;22.10;1.00;;;;;;4974136;28;19936;-60
2023/09/04 06:25:43;;;;;;;;;;;22.10;1.00;;;;;;4974143;28;19933;-57
2023/09/04 06:28:10;;;;;;;;;;;22.10;1.00;;;;;;4974145;28;20013;-58
2023/09/04 06:30:37;;;;;;;;;;;22.10;1.00;;;;;;4976431;28;19933;-60
2023/09/04 06:33:04;;;;;;;;;;;22.10;1.00;;;;;;4979909;28;19930;-60
2023/09/04 06:35:31;;;;;;;;;;;22.10;1.00;;;;;;4965942;28;19926;-60
2023/09/04 06:37:58;;;;;;;;;;;22.10;1.00;;;;;;4974241;28;20013;-60
2023/09/04 06:40:25;;;;;;;;;;;22.10;1.00;;;;;;4973501;28;19926;-58
2023/09/04 06:42:55;;;;;;;;;;;22.10;1.00;;;;;;4973968;28;20434;-59
2023/09/04 06:45:21;;;;;;;;;;;22.10;1.00;;;;;;4981602;28;19926;-59
2023/09/04 06:47:50;;;;;;;;;;;22.10;1.00;;;;;;4973947;28;19963;-60
2023/09/04 06:50:17;;;;;;;;;;;22.10;1.00;;;;;;4956822;28;19934;-59
2023/09/04 06:52:44;;;;;;;;;;;22.10;1.00;;;;;;4973731;28;19965;-60
2023/09/04 06:55:10;;;;;;;;;;;22.10;1.00;;;;;;4973632;28;19997;-59
2023/09/04 06:57:37;;;;;;;;;;;22.10;1.00;;;;;;4973528;28;19958;-60
2023/09/04 07:00:08;;;;;;;;;;;22.10;1.00;;;;;;4973755;28;19965;-59
2023/09/04 07:02:36;;;;;;;;;;;22.10;1.00;;;;;;4973506;28;20025;-60
2023/09/04 07:05:05;;;;;;;;;;;22.10;1.00;;;;;;4973501;28;19985;-57
2023/09/04 07:07:35;;;;;;;;;;;22.10;1.00;;;;;;4973368;28;19926;-60
2023/09/04 07:10:05;;;;;;;;;;;22.10;1.00;;;;;;5074743;23;19925;-55
2023/09/04 07:12:35;;;;;;;;;;;22.10;1.00;;;;;;4972332;28;19926;-60
2023/09/04 07:15:04;;;;;;;;;;;22.10;1.00;;;;;;4972571;28;20296;-59
2023/09/04 07:17:31;;;;;;;;;;;22.20;1.00;;;;;;4973281;28;19969;-59
2023/09/04 07:19:58;;;;;;;;;;;22.20;1.00;;;;;;4973437;28;19937;-58
2023/09/04 07:22:25;;;;;;;;;;;22.20;1.00;;;;;;4973213;28;20386;-60
2023/09/04 07:24:52;;;;;;;;;;;22.20;1.00;;;;;;4973109;28;19926;-58
2023/09/04 07:27:18;;;;;;;;;;;22.20;1.00;;;;;;4973550;28;20299;-59
2023/09/04 07:29:45;;;;;;;;;;;22.20;1.00;;;;;;4973201;28;19934;-58
2023/09/04 07:32:12;;;;;;;;;;;22.20;1.00;;;;;;4973301;28;19958;-60
2023/09/04 07:34:38;;;;;;;;;;;22.20;1.00;;;;;;4972870;28;19926;-58
2023/09/04 07:37:05;;;;;;;;;;;22.10;1.00;;;;;;4965243;28;20301;-60
2023/09/04 07:39:32;;;;;;;;;;;22.20;1.00;;;;;;4965123;28;20408;-59
2023/09/04 07:42:00;;;;;;;;;;;22.20;1.00;;;;;;5459603;23;19926;-55
2023/09/04 07:44:26;;;;;;;;;;;22.20;1.00;;;;;;4975855;28;19930;-60
2023/09/04 07:46:53;;;;;;;;;;;22.20;1.00;;;;;;4973135;28;20390;-60
2023/09/04 07:49:20;;;;;;;;;;;22.20;1.00;;;;;;4973271;28;19926;-56
2023/09/04 07:51:47;;;;;;;;;;;22.10;1.00;;;;;;4962351;28;20294;-60
2023/09/04 07:54:13;;;;;;;;;;;22.20;1.00;;;;;;4953738;28;19926;-60
2023/09/04 07:56:40;;;;;;;;;;;22.20;1.00;;;;;;4953609;28;19927;-60
2023/09/04 07:59:09;;;;;;;;;;;22.20;1.00;;;;;;4953815;28;19997;-58
2023/09/04 08:01:36;;;;;;;;;;;22.20;1.00;;;;;;4953722;28;20021;-61
2023/09/04 08:04:03;;;;;;;;;;;22.20;1.00;;;;;;4953756;28;19933;-59
2023/09/04 08:06:30;;;;;;;;;;;22.20;1.00;;;;;;4953684;28;19926;-58
2023/09/04 08:08:56;;;;;;;;;;;22.20;1.00;;;;;;4953728;28;20009;-60
2023/09/04 08:11:23;;;;;;;;;;;22.20;1.00;;;;;;4953736;28;19927;-59
2023/09/04 08:13:50;;;;;;;;;;;22.20;1.00;;;;;;4963934;28;19930;-58
2023/09/04 08:16:17;;;;;;;;;;;22.20;1.00;;;;;;4972929;28;20029;-57
2023/09/04 08:18:44;;;;;;;;;;;22.20;1.00;;;;;;4972793;28;19980;-58
2023/09/04 08:21:10;;;;;;;;;;;22.20;1.00;;;;;;4972876;28;19926;-60
2023/09/04 08:23:37;;;;;;;;;;;22.30;1.00;;;;;;4972649;28;19930;-58
2023/09/04 08:26:04;;;;;;;;;;;22.30;1.00;;;;;;4973023;28;19926;-59
2023/09/04 08:28:30;;;;;;;;;;;22.20;1.00;;;;;;4975700;28;19926;-60
2023/09/04 08:30:57;;;;;;;;;;;22.30;1.00;;;;;;4976549;28;19965;-59
2023/09/04 08:33:24;;;;;;;;;;;22.30;1.00;;;;;;4976215;28;20390;-60
2023/09/04 08:35:51;;;;;;;;;;;22.30;1.00;;;;;;4976120;28;19989;-60
2023/09/04 08:38:18;;;;;;;;;;;22.30;1.00;;;;;;4970070;28;20013;-59
2023/09/04 08:40:45;;;;;;;;;;;22.30;1.00;;;;;;4956968;28;20291;-59
2023/09/04 08:43:14;;;;;;;;;;;22.30;1.00;;;;;;4956893;28;19926;-60
2023/09/04 08:45:41;;;;;;;;;;;22.30;1.00;;;;;;4973646;28;20382;-60
2023/09/04 08:48:08;;;;;;;;;;;22.30;1.00;;;;;;4976275;28;19926;-59
2023/09/04 08:50:35;;;;;;;;;;;22.30;1.00;;;;;;4976362;28;19997;-58
2023/09/04 08:53:02;;;;;;;;;;;22.30;1.00;;;;;;4976228;28;19926;-60
2023/09/04 08:55:30;;;;;;;;;;;22.30;1.00;;;;;;4976081;28;19933;-59
2023/09/04 08:57:57;;;;;;;;;;;22.30;1.00;;;;;;4976060;28;20517;-59
2023/09/04 09:00:24;;;;;;;;;;;22.30;1.00;;;;;;4976192;28;19930;-58
2023/09/04 09:02:51;;;;;;;;;;;22.30;1.00;;;;;;4976307;28;19965;-59
2023/09/04 09:05:19;;;;;;;;;;;22.30;1.00;;;;;;4975831;28;20378;-59
2023/09/04 09:07:46;;;;;;;;;;;22.30;1.00;;;;;;4975952;28;19989;-56
2023/09/04 09:10:16;;;;;;;;;;;22.30;1.00;;;;;;4976233;28;20025;-59
2023/09/04 09:12:43;;;;;;;;;;;22.30;1.00;;;;;;4975743;28;19942;-60
2023/09/04 09:15:10;;;;;;;;;;;22.30;1.00;;;;;;4959057;28;19992;-58
2023/09/04 09:17:53;;;;;;;;;;;22.30;1.00;;;;;;4975926;28;20025;-60
2023/09/04 09:20:31;;;;;;;;;;;22.40;1.00;;;;;;4977374;28;19949;-60
2023/09/04 09:23:00;;;;;;;;;;;22.40;1.00;;;;;;4977157;28;20045;-60
2023/09/04 09:25:27;;;;;;;;;;;22.40;1.00;;;;;;4977178;28;20338;-59
2023/09/04 09:28:00;;;;;;;;;;;22.40;1.00;;;;;;4976629;28;19981;-61
2023/09/04 09:30:47;;;;;;;;;;;22.40;1.00;;;;;;4977696;28;19926;-60
2023/09/04 09:33:18;;;;;;;;;;;22.40;1.00;;;;;;4974125;28;19926;-59
2023/09/04 09:35:45;;;;;;;;;;;22.40;1.00;;;;;;4975430;28;20291;-60
2023/09/04 09:38:12;;;;;;;;;;;22.40;1.00;;;;;;4975132;28;19933;-58
2023/09/04 09:40:38;;;;;;;;;;;22.40;1.00;;;;;;4975352;28;19926;-57
2023/09/04 09:43:06;;;;;;;;;;;22.40;1.00;;;;;;4975489;28;19926;-56
2023/09/04 09:45:34;;;;;;;;;;;22.40;1.00;;;;;;5082938;23;19977;-58
2023/09/04 09:48:07;;;;;;;;;;;22.40;1.00;;;;;;4994702;28;19972;-58
2023/09/04 09:50:37;;;;;;;;;;;22.40;1.00;;;;;;4994683;28;19945;-58
2023/09/04 09:53:04;;;;;;;;;;;22.40;1.00;;;;;;4994608;28;20436;-57
2023/09/04 09:55:32;;;;;;;;;;;22.40;1.00;;;;;;4994489;28;19980;-59
2023/09/04 09:57:59;;;;;;;;;;;22.40;1.00;;;;;;4994218;28;19937;-58
2023/09/04 10:00:26;;;;;;;;;;;22.40;1.00;;;;;;4994535;28;19948;-59
2023/09/04 10:02:53;;;;;;;;;;;22.40;1.00;;;;;;4994204;28;19932;-58
2023/09/04 10:05:22;;;;;;;;;;;22.40;1.00;;;;;;4994012;28;19926;-60
2023/09/04 10:07:51;;;;;;;;;;;22.50;1.00;;;;;;4992828;28;19929;-57
2023/09/04 10:10:18;;;;;;;;;;;22.40;1.00;;;;;;4994251;28;19926;-59
2023/09/04 10:12:49;;;;;;;;;;;22.50;1.00;;;;;;4994060;28;19925;-59
2023/09/04 10:18:19;;;;;;;;;;;22.40;1.00;;;;;;5072831;23;20036;-59
2023/09/04 10:20:46;;;;;;;;;;;22.50;1.00;;;;;;4993901;28;19925;-58
2023/09/04 10:23:14;;;;;;;;;;;22.50;1.00;;;;;;4994368;28;19926;-59
2023/09/04 10:26:06;;;;;;;;;;;22.40;1.00;;;;;;4993826;28;19930;-60
2023/09/04 10:28:40;;;;;;;;;;;22.50;1.00;;;;;;4993866;28;20016;-55
2023/09/04 10:31:10;;;;;;;;;;;22.50;1.00;;;;;;4986377;28;20020;-58
2023/09/04 10:33:38;;;;;;;;;;;22.50;1.00;;;;;;4993631;28;19977;-58
2023/09/04 10:36:05;;;;;;;;;;;22.50;1.00;;;;;;4993482;28;19932;-60
2023/09/04 10:38:33;;;;;;;;;;;22.50;1.00;;;;;;4993906;28;20348;-59
2023/09/04 10:41:00;;;;;;;;;;;22.50;1.00;;;;;;4993459;28;19929;-57
2023/09/04 10:43:40;;;;;;;;;;;22.50;1.00;;;;;;4993412;28;19972;-59
2023/09/04 10:46:07;;;;;;;;;;;22.50;1.00;;;;;;4993552;28;19981;-59
2023/09/04 10:48:42;;;;;;;;;;;22.50;1.00;;;;;;5232694;23;20302;-61
2023/09/04 10:51:24;;;;;;;;;;;22.50;1.00;;;;;;4964699;28;19948;-59
2023/09/04 10:53:51;;;;;;;;;;;22.50;1.00;;;;;;4973596;28;19926;-60
2023/09/04 10:56:18;;;;;;;;;;;22.50;1.00;;;;;;4973997;28;19926;-59
2023/09/04 10:58:57;;;;;;;;;;;22.50;1.00;;;;;;4973822;28;19936;-59
2023/09/04 11:01:30;;;;;;;;;;;22.60;1.00;;;;;;4973996;28;19926;-60
2023/09/04 11:03:56;;;;;;;;;;;22.60;1.00;;;;;;4972495;28;20016;-60
2023/09/04 11:06:23;;;;;;;;;;;22.60;1.00;;;;;;4973969;28;20382;-58
2023/09/04 11:08:51;;;;;;;;;;;22.60;1.00;;;;;;4973466;28;19930;-58
2023/09/04 11:11:25;;;;;;;;;;;22.50;1.00;;;;;;4973945;28;19926;-59
2023/09/04 11:13:56;;;;;;;;;;;22.60;1.00;;;;;;4973535;28;19927;-60
2023/09/04 11:16:23;;;;;;;;;;;22.60;1.00;;;;;;4973839;28;19980;-60
2023/09/04 11:19:00;;;;;;;;;;;22.60;1.00;;;;;;4973279;28;20290;-58
2023/09/04 11:21:31;;;;;;;;;;;22.60;1.00;;;;;;5131269;23;20079;-60
2023/09/04 11:23:58;;;;;;;;;;;22.60;1.00;;;;;;4971933;28;20014;-60
2023/09/04 11:26:26;;;;;;;;;;;22.60;1.00;;;;;;4960524;28;19937;-60
2023/09/04 11:28:52;;;;;;;;;;;22.60;1.00;;;;;;4954260;29;20441;-61
2023/09/04 11:31:21;;;;;;;;;;;22.60;1.00;;;;;;4954098;29;20021;-60
2023/09/04 11:33:48;;;;;;;;;;;22.60;1.00;;;;;;4954113;29;19927;-61
2023/09/04 11:36:16;;;;;;;;;;;22.60;1.00;;;;;;4954308;28;19930;-60
2023/09/04 11:38:43;;;;;;;;;;;22.60;1.00;;;;;;4954406;29;19973;-61
2023/09/04 11:41:19;;;;;;;;;;;22.60;1.00;;;;;;4954571;29;19974;-60
2023/09/04 11:43:46;;;;;;;;;;;22.60;1.00;;;;;;4953749;29;19927;-59
2023/09/04 11:46:13;;;;;;;;;;;22.60;1.00;;;;;;4954242;28;19933;-60
2023/09/04 11:48:40;;;;;;;;;;;22.60;1.00;;;;;;4954238;29;19927;-60
2023/09/04 11:51:09;;;;;;;;;;;22.60;1.00;;;;;;4953908;29;19927;-59
2023/09/04 11:53:48;;;;;;;;;;;22.60;1.00;;;;;;4949436;29;19927;-61
2023/09/04 11:56:15;;;;;;;;;;;22.60;1.00;;;;;;4954364;28;20190;-60
2023/09/04 11:58:41;;;;;;;;;;;22.60;1.00;;;;;;4954176;29;19926;-60
2023/09/04 12:01:08;;;;;;;;;;;22.60;1.00;;;;;;4954024;28;19926;-57
2023/09/04 12:03:35;;;;;;;;;;;22.60;1.00;;;;;;4957907;29;19930;-59
2023/09/04 12:06:02;;;;;;;;;;;22.60;1.00;;;;;;4958099;28;20417;-61
2023/09/04 12:08:29;;;;;;;;;;;22.60;1.00;;;;;;4958296;29;19926;-59
2023/09/04 12:10:56;;;;;;;;;;;22.60;1.00;;;;;;4957981;29;19930;-60
2023/09/04 12:13:23;;;;;;;;;;;22.60;1.00;;;;;;4958470;29;19926;-60
2023/09/04 12:15:50;;;;;;;;;;;22.60;1.00;;;;;;4958421;28;19933;-60
2023/09/04 12:18:17;;;;;;;;;;;22.60;1.00;;;;;;4950701;29;20342;-61
2023/09/04 12:20:45;;;;;;;;;;;22.60;1.00;;;;;;4958363;29;20251;-62
2023/09/04 12:23:12;;;;;;;;;;;22.60;1.00;;;;;;4994016;22;19953;-63
2023/09/04 12:25:39;;;;;;;;;;;22.60;1.00;;;;;;4986391;28;19926;-59
2023/09/04 12:28:08;;;;;;;;;;;22.60;1.00;;;;;;4977792;28;19926;-60
2023/09/04 12:30:40;;;;;;;;;;;22.60;1.00;;;;;;4977628;28;20353;-61
2023/09/04 12:33:11;;;;;;;;;;;22.60;1.00;;;;;;4960998;28;20370;-61
2023/09/04 12:35:38;;;;;;;;;;;22.60;1.00;;;;;;4977026;28;20013;-61
2023/09/04 12:38:06;;;;;;;;;;;22.60;1.00;;;;;;4977696;28;19926;-61
2023/09/04 12:40:34;;;;;;;;;;;22.60;1.00;;;;;;4976901;28;19926;-60
2023/09/04 12:43:01;;;;;;;;;;;22.60;1.00;;;;;;4976621;28;20349;-61
2023/09/04 12:45:28;;;;;;;;;;;22.60;1.00;;;;;;4965935;28;19926;-61
2023/09/04 12:47:58;;;;;;;;;;;22.60;1.00;;;;;;4976450;28;20279;-60
2023/09/04 12:50:25;;;;;;;;;;;22.60;1.00;;;;;;4968463;28;19926;-60
2023/09/04 12:55:47;;;;;;;;;;;22.60;1.00;;;;;;5056842;23;20020;-59
2023/09/04 12:58:15;;;;;;;;;;;22.60;1.00;;;;;;4995916;28;19934;-57
2023/09/04 13:00:42;;;;;;;;;;;22.60;1.00;;;;;;4995931;28;19930;-59
2023/09/04 13:03:10;;;;;;;;;;;22.60;1.00;;;;;;4995790;28;19973;-59
2023/09/04 13:05:37;;;;;;;;;;;22.60;1.00;;;;;;4997050;28;20305;-60
2023/09/04 13:08:04;;;;;;;;;;;22.60;1.00;;;;;;4997342;28;19969;-60
2023/09/04 13:10:31;;;;;;;;;;;22.60;1.00;;;;;;4997785;28;20329;-60
2023/09/04 13:12:58;;;;;;;;;;;22.60;1.00;;;;;;4997328;28;19926;-60
2023/09/04 13:15:24;;;;;;;;;;;22.60;1.00;;;;;;4997879;28;20275;-60
2023/09/04 13:17:52;;;;;;;;;;;22.60;1.00;;;;;;4997692;28;19936;-63
2023/09/04 13:20:19;;;;;;;;;;;22.60;1.00;;;;;;4997180;28;20021;-61
2023/09/04 13:22:46;;;;;;;;;;;22.60;1.00;;;;;;4997399;28;19926;-61
2023/09/04 13:28:08;;;;;;;;;;;22.60;1.00;;;;;;5159481;23;19926;-60
2023/09/04 13:30:35;;;;;;;;;;;22.60;1.00;;;;;;4997288;28;19965;-60
2023/09/04 13:33:02;;;;;;;;;;;22.60;1.00;;;;;;4997316;28;19930;-59
2023/09/04 13:35:29;;;;;;;;;;;22.60;1.00;;;;;;4997130;28;19968;-57
2023/09/04 13:37:56;;;;;;;;;;;22.60;1.00;;;;;;4997452;28;20184;-60
2023/09/04 13:40:23;;;;;;;;;;;22.60;1.00;;;;;;4988826;28;19926;-61
2023/09/04 13:42:50;;;;;;;;;;;22.60;1.00;;;;;;4979411;28;20449;-60
2023/09/04 13:45:16;;;;;;;;;;;22.60;1.00;;;;;;4992512;28;19929;-62
2023/09/04 13:47:43;;;;;;;;;;;22.60;1.00;;;;;;4971597;28;19953;-62
2023/09/04 13:50:10;;;;;;;;;;;22.60;1.00;;;;;;4988764;28;20416;-60
2023/09/04 13:52:37;;;;;;;;;;;22.60;1.00;;;;;;4981357;28;19958;-60
2023/09/04 13:55:04;;;;;;;;;;;22.60;1.00;;;;;;4992756;28;19925;-59
2023/09/04 13:57:33;;;;;;;;;;;22.60;1.00;;;;;;4989749;28;19949;-60
2023/09/04 14:00:00;;;;;;;;;;;22.60;1.00;;;;;;5154233;22;19936;-60
2023/09/04 14:02:28;;;;;;;;;;;22.60;1.00;;;;;;4996178;28;20020;-60
2023/09/04 14:04:56;;;;;;;;;;;22.60;1.00;;;;;;4996398;28;19930;-60
2023/09/04 14:07:23;;;;;;;;;;;22.60;1.00;;;;;;4996784;28;19926;-60
2023/09/04 14:09:49;;;;;;;;;;;22.70;1.00;;;;;;4989303;28;19930;-60
2023/09/04 14:12:16;;;;;;;;;;;22.60;1.00;;;;;;4996957;28;20321;-60
2023/09/04 14:14:43;;;;;;;;;;;22.70;1.00;;;;;;4996163;28;19980;-60
2023/09/04 14:17:10;;;;;;;;;;;22.70;1.00;;;;;;4996148;28;19964;-61
2023/09/04 14:19:36;;;;;;;;;;;22.70;1.00;;;;;;4996379;28;19933;-61
2023/09/04 14:22:03;;;;;;;;;;;22.70;1.00;;;;;;4995753;28;19961;-61
2023/09/04 14:24:33;;;;;;;;;;;22.70;1.00;;;;;;4994743;28;19957;-61
2023/09/04 14:27:00;;;;;;;;;;;22.70;1.00;;;;;;4979644;28;19927;-61
2023/09/04 14:29:27;;;;;;;;;;;22.70;1.00;;;;;;4964717;28;20021;-60
2023/09/04 14:31:53;;;;;;;;;;;22.70;1.00;;;;;;4970188;28;19926;-59
2023/09/04 14:34:20;;;;;;;;;;;22.70;1.00;;;;;;4992900;28;19933;-61
2023/09/04 14:36:47;;;;;;;;;;;22.70;1.00;;;;;;4994582;28;19926;-61
2023/09/04 14:39:34;;;;;;;;;;;22.70;1.00;;;;;;4994592;28;19932;-60
2023/09/04 14:42:01;;;;;;;;;;;22.70;1.00;;;;;;4994470;28;20279;-61
2023/09/04 14:44:28;;;;;;;;;;;22.70;1.00;;;;;;4994286;28;19925;-61
2023/09/04 14:46:55;;;;;;;;;;;22.70;1.00;;;;;;4994452;28;19949;-60